Terminal Aerodrome Forecast
Issued by NWS

Home | Current Version | Previous Version | Text Only | Print | Product List | Glossary On
Versions: 1 2 3 4 5 6 7 8 9 10 11 12 13
797
FTUS45 KRIW 272333
TAFRKS
TAF
KRKS 272333Z 2800/2824 28020G32KT P6SM SCT100
     FM280200 30012KT P6SM SCT100
     FM280800 16010KT P6SM FEW100
     FM281600 24012KT P6SM SCT100
     FM281800 26018G28KT P6SM SCT100=

USA.gov is the U.S. government's official web portal to all federal, state and local government web resources and services.